Contrecoeur, Canada
Current Conditions -  °F | °C
As of 9:00 AM on Thursday 30 Oct 2014 (Local Time) from CYHU Reporting Station
Clear Clear  
Wind Chill: 37°   Ceiling: Unl
Heat Index: 43°   Visibility: 9mi
Dew Point: 32°   Wind: 9mph
Humidity: 66%   Direction: 300°WNW
Pressure: 29.96"   Gusts: NA
Location:  45.85°N, 73.23°W
Report Text: CYHU 301300Z AUTO 30008KT 9SM CLR 06/00 A2996 RMK SLP145
Loading
Personal Weather Stations






























Interactive Weather Map
Tropical Storm Tracking
New forecast layout! Learn more

10-Day Weather Forecast

Advertisements
Track Severe Weather on mobile